Time;durP1;ratioP1;P1;durP2;ratioP2;P2;SDS_P1;SDS_P2;PMS_P1;PMS_P2;Temp;Humidity;BMP_temperature;BMP_pressure;BME280_temperature;BME280_humidity;BME280_pressure;Samples;Min_cycle;Max_cycle;Signal;HPM_P1;HPM_P2
2021/04/25 00:01:52;;;;;;;8.02;5.00;;;11.20;99.90;;;10.70;74.05;100922.28;5046743;28;20033;-45
2021/04/25 00:04:18;;;;;;;9.10;4.93;;;11.20;99.90;;;10.75;73.60;100907.91;5047967;28;20109;-44
2021/04/25 00:06:45;;;;;;;10.02;5.43;;;11.20;99.90;;;10.72;73.63;100908.16;5045645;28;20043;-50
2021/04/25 00:09:12;;;;;;;9.82;5.22;;;11.20;99.90;;;10.73;74.17;100909.81;5027359;28;20051;-45
2021/04/25 00:11:39;;;;;;;9.35;5.43;;;11.20;99.90;;;10.71;73.66;100903.09;5029469;28;20041;-47
2021/04/25 00:14:06;;;;;;;8.48;5.25;;;11.20;99.90;;;10.69;74.16;100898.00;5047693;28;20040;-44
2021/04/25 00:16:33;;;;;;;9.20;7.03;;;11.20;99.90;;;10.76;73.51;100903.50;5046705;28;20037;-47
2021/04/25 00:18:59;;;;;;;13.02;5.78;;;11.20;99.90;;;10.76;73.41;100899.13;5031651;28;20127;-46
2021/04/25 00:21:28;;;;;;;9.30;6.20;;;11.20;99.90;;;10.69;73.60;100903.22;5029390;28;20365;-43
2021/04/25 00:23:58;;;;;;;10.70;6.18;;;11.30;99.90;;;10.46;74.39;100905.22;5044639;28;20118;-43
2021/04/25 00:26:24;;;;;;;8.73;5.32;;;11.10;99.90;;;10.21;75.16;100901.31;5030766;28;20075;-42
2021/04/25 00:28:50;;;;;;;9.23;5.50;;;10.90;99.90;;;10.02;75.72;100897.75;5045084;28;20087;-45
2021/04/25 00:31:17;;;;;;;8.13;5.15;;;10.70;99.90;;;9.92;76.06;100893.34;5047855;28;20064;-44
2021/04/25 00:33:43;;;;;;;8.05;4.82;;;10.60;99.90;;;9.86;76.50;100898.25;5046443;28;20361;-45
2021/04/25 00:36:09;;;;;;;9.35;5.40;;;10.40;99.90;;;9.81;76.35;100893.44;5046176;28;20114;-45
2021/04/25 00:38:35;;;;;;;7.03;5.68;;;10.40;99.90;;;9.82;76.35;100895.09;5046666;28;20044;-47
2021/04/25 00:41:01;;;;;;;11.55;6.40;;;10.40;99.90;;;9.81;76.28;100892.63;5047581;28;20056;-46
2021/04/25 00:43:27;;;;;;;11.38;5.53;;;10.40;99.90;;;9.82;76.26;100884.69;5037975;28;20488;-47
2021/04/25 00:45:53;;;;;;;11.80;6.60;;;10.40;99.90;;;9.82;76.23;100883.84;5047270;28;20045;-45
2021/04/25 00:48:21;;;;;;;8.63;6.38;;;10.40;99.90;;;9.82;76.40;100882.06;5039550;28;20091;-46
2021/04/25 00:50:47;;;;;;;10.35;6.72;;;10.40;99.90;;;9.79;76.35;100876.31;5043584;28;20033;-47
2021/04/25 00:53:13;;;;;;;11.07;7.32;;;10.40;99.90;;;9.83;76.53;100877.69;5046488;28;20025;-45
2021/04/25 00:55:39;;;;;;;9.23;6.25;;;10.30;99.90;;;9.88;76.22;100867.72;5047244;28;20048;-45
2021/04/25 00:58:06;;;;;;;7.10;5.57;;;10.40;99.90;;;9.92;76.17;100869.13;5028598;28;20033;-45
2021/04/25 01:00:33;;;;;;;12.57;6.82;;;10.40;99.90;;;9.84;76.50;100868.94;5028658;28;20120;-45
2021/04/25 01:02:59;;;;;;;10.63;6.20;;;10.40;99.90;;;9.76;76.54;100864.38;5045954;28;20119;-44
2021/04/25 01:05:25;;;;;;;12.23;7.30;;;10.40;99.90;;;9.79;76.42;100860.69;5047213;28;20036;-45
2021/04/25 01:07:51;;;;;;;12.10;6.60;;;10.30;99.90;;;9.84;76.33;100863.72;5045957;28;20029;-42
2021/04/25 01:10:18;;;;;;;8.52;6.93;;;10.30;99.90;;;10.05;75.68;100854.06;5042314;28;20047;-43
2021/04/25 01:12:45;;;;;;;10.07;6.60;;;10.50;99.90;;;10.13;75.46;100859.44;5040833;28;20037;-43
2021/04/25 01:15:15;;;;;;;8.90;5.88;;;10.60;99.90;;;10.06;75.33;100854.91;5047730;28;20043;-45
2021/04/25 01:17:47;;;;;;;9.77;6.55;;;10.60;99.90;;;9.99;76.27;100859.81;5049184;28;20043;-46
2021/04/25 01:20:18;;;;;;;11.50;7.35;;;10.50;99.90;;;10.07;75.59;100856.53;5048827;28;20105;-43
2021/04/25 01:22:45;;;;;;;11.18;7.43;;;10.60;99.90;;;10.13;75.44;100850.81;5049969;28;20040;-43
2021/04/25 01:25:14;;;;;;;10.43;5.72;;;10.60;99.90;;;10.03;75.73;100850.78;5047783;28;20040;-45
2021/04/25 01:27:40;;;;;;;14.23;7.47;;;10.60;99.90;;;9.97;76.01;100849.53;5049227;28;20033;-45
2021/04/25 01:30:10;;;;;;;13.20;6.90;;;10.50;99.90;;;9.97;76.07;100846.09;5048065;28;20116;-44
2021/04/25 01:32:40;;;;;;;13.60;7.05;;;10.50;99.90;;;10.06;75.87;100847.09;5048560;28;20036;-44
2021/04/25 01:35:07;;;;;;;8.63;6.25;;;10.50;99.90;;;10.06;75.66;100840.09;5048986;28;20029;-45
2021/04/25 01:37:33;;;;;;;13.13;7.82;;;10.60;99.90;;;9.98;75.91;100842.53;5031534;28;20170;-41
2021/04/25 01:40:00;;;;;;;12.63;7.10;;;10.60;99.90;;;9.84;76.26;100837.72;5048449;28;20096;-45
2021/04/25 01:42:26;;;;;;;13.75;6.70;;;10.50;99.90;;;9.78;76.56;100835.63;5048408;28;20060;-41
2021/04/25 01:44:51;;;;;;;9.13;7.10;;;10.40;99.90;;;9.88;76.76;100832.13;5042056;28;20033;-47
2021/04/25 01:47:17;;;;;;;15.52;7.30;;;10.40;99.90;;;9.92;76.26;100827.47;5040679;28;20048;-42
2021/04/25 01:49:43;;;;;;;10.85;6.93;;;10.40;99.90;;;9.83;76.54;100828.25;5048634;28;20090;-46
2021/04/25 01:52:09;;;;;;;13.55;6.75;;;10.40;99.90;;;9.70;76.66;100830.25;5048492;28;20037;-50
2021/04/25 01:54:35;;;;;;;8.50;7.35;;;10.30;99.90;;;9.55;77.07;100827.97;5049424;28;20028;-43
2021/04/25 01:57:01;;;;;;;11.15;6.70;;;10.20;99.90;;;9.42;77.63;100824.78;5050203;28;20472;-46
2021/04/25 01:59:27;;;;;;;12.95;6.47;;;10.00;99.90;;;9.35;77.90;100823.63;5047516;28;20037;-43
2021/04/25 02:01:53;;;;;;;9.30;6.40;;;10.00;99.90;;;9.26;78.07;100811.41;5048351;28;20152;-44
2021/04/25 02:04:20;;;;;;;10.60;6.85;;;9.90;99.90;;;9.13;78.66;100819.38;5049203;28;20035;-47
2021/04/25 02:06:46;;;;;;;8.20;6.32;;;9.80;99.90;;;9.10;78.64;100806.63;5030914;28;20079;-45
2021/04/25 02:09:12;;;;;;;15.13;6.30;;;9.70;99.90;;;9.10;78.62;100811.00;5049045;28;20033;-48
2021/04/25 02:11:38;;;;;;;10.00;6.28;;;9.70;99.90;;;9.02;78.88;100801.22;5047914;28;20222;-44
2021/04/25 02:14:07;;;;;;;8.40;7.22;;;9.60;99.90;;;9.09;78.72;100796.38;5048241;28;20163;-43
2021/04/25 02:16:34;;;;;;;9.65;7.00;;;9.60;99.90;;;9.19;78.49;100797.25;5047164;28;20576;-43
2021/04/25 02:19:00;;;;;;;13.50;6.53;;;9.70;99.90;;;9.22;78.26;100787.44;5031285;28;20033;-41
2021/04/25 02:21:27;;;;;;;9.95;6.10;;;9.80;99.90;;;9.09;79.02;100788.56;5047479;28;20060;-42
2021/04/25 02:23:55;;;;;;;13.57;6.43;;;9.70;99.90;;;9.03;78.91;100792.50;5039685;28;20036;-41
2021/04/25 02:26:22;;;;;;;9.75;6.70;;;9.60;99.90;;;8.96;79.25;100796.56;5044643;28;20436;-43
2021/04/25 02:28:48;;;;;;;7.82;6.43;;;9.50;99.90;;;8.89;79.78;100796.25;5048914;28;20477;-42
2021/04/25 02:31:15;;;;;;;10.27;6.97;;;9.50;99.90;;;8.98;79.54;100795.47;5048400;28;20138;-42
2021/04/25 02:33:41;;;;;;;12.35;6.63;;;9.50;99.90;;;9.17;79.00;100796.56;5038992;28;20132;-45
2021/04/25 02:36:08;;;;;;;15.32;8.65;;;9.60;99.90;;;9.35;78.60;100787.22;5032817;28;20037;-43
2021/04/25 02:38:34;;;;;;;12.75;6.25;;;9.80;99.90;;;9.46;79.22;100787.13;5030460;28;20233;-44
2021/04/25 02:41:02;;;;;;;7.93;6.43;;;9.90;99.90;;;9.47;78.73;100783.56;5045443;28;20421;-43
2021/04/25 02:43:29;;;;;;;12.93;6.13;;;10.00;99.90;;;9.52;78.72;100777.97;5046827;28;20173;-44
2021/04/25 02:45:55;;;;;;;11.73;6.35;;;10.00;99.90;;;9.56;78.65;100775.00;5020723;28;20562;-42
2021/04/25 02:48:21;;;;;;;8.93;5.70;;;10.00;99.90;;;9.62;78.99;100782.28;5030300;28;20120;-44
2021/04/25 02:50:47;;;;;;;13.02;7.10;;;10.10;99.90;;;9.69;77.99;100784.38;5041715;28;20044;-42
2021/04/25 02:53:14;;;;;;;10.48;6.68;;;10.10;99.90;;;9.73;77.56;100775.34;5047951;28;20033;-43
2021/04/25 02:55:41;;;;;;;11.13;6.43;;;10.20;99.90;;;9.76;77.52;100781.09;5049455;28;20029;-43
2021/04/25 02:58:09;;;;;;;12.10;6.00;;;10.20;99.90;;;9.72;77.55;100774.53;5048380;28;20047;-42
2021/04/25 03:00:36;;;;;;;9.18;6.03;;;10.20;99.90;;;9.66;77.90;100775.03;5048532;28;20088;-42
2021/04/25 03:03:02;;;;;;;14.52;6.88;;;10.20;99.90;;;9.64;78.51;100772.56;5047887;28;20496;-45
2021/04/25 03:05:28;;;;;;;10.68;7.32;;;10.20;99.90;;;9.68;77.74;100777.50;5047517;28;20037;-44
2021/04/25 03:07:55;;;;;;;13.85;6.80;;;10.20;99.90;;;9.64;77.80;100766.53;5047932;28;20392;-45
2021/04/25 03:10:24;;;;;;;10.32;5.85;;;10.20;99.90;;;9.65;78.40;100770.78;5049797;28;20041;-42
2021/04/25 03:12:50;;;;;;;12.98;6.95;;;10.10;99.90;;;9.62;78.37;100764.06;5029483;28;20079;-43
2021/04/25 03:15:20;;;;;;;9.15;6.00;;;10.10;99.90;;;9.62;78.75;100758.88;5048757;28;20025;-43
2021/04/25 03:17:47;;;;;;;11.70;7.22;;;10.10;99.90;;;9.58;78.15;100752.28;5046110;28;20112;-42
2021/04/25 03:20:17;;;;;;;7.50;4.88;;;10.10;99.90;;;9.62;78.56;100765.84;5047360;28;20033;-43
2021/04/25 03:22:44;;;;;;;11.05;6.53;;;10.10;99.90;;;9.59;78.07;100761.72;5047063;28;20425;-43
2021/04/25 03:25:11;;;;;;;9.82;5.57;;;10.10;99.90;;;9.60;78.30;100760.78;5047824;28;20488;-42
2021/04/25 03:27:38;;;;;;;8.85;6.18;;;10.10;99.90;;;9.61;78.31;100759.00;5046724;28;20247;-42
2021/04/25 03:30:08;;;;;;;9.82;6.05;;;10.10;99.90;;;9.50;79.09;100770.31;5029118;28;20590;-42
2021/04/25 03:32:34;;;;;;;9.10;6.78;;;10.10;99.90;;;9.44;79.41;100760.44;5047219;28;20036;-42
2021/04/25 03:35:03;;;;;;;10.35;5.75;;;10.00;99.90;;;9.41;79.51;100763.31;5046516;28;20098;-44
2021/04/25 03:37:29;;;;;;;9.27;5.90;;;10.00;99.90;;;9.38;79.96;100753.16;5042724;28;20029;-42
2021/04/25 03:39:55;;;;;;;10.77;6.65;;;9.90;99.90;;;9.41;79.08;100763.31;5047515;28;21521;-42
2021/04/25 03:42:21;;;;;;;8.52;6.53;;;9.90;99.90;;;9.42;79.15;100751.13;5047335;28;20045;-43
2021/04/25 03:44:47;;;;;;;15.70;6.50;;;9.90;99.90;;;9.39;79.07;100752.22;5046540;28;20032;-44
2021/04/25 03:47:13;;;;;;;7.20;5.90;;;9.90;99.90;;;9.40;78.92;100747.84;5369950;22;21116;-44
2021/04/25 03:49:39;;;;;;;9.15;6.28;;;9.90;99.90;;;9.39;78.87;100747.00;5096084;28;20562;-48
2021/04/25 03:52:08;;;;;;;9.40;6.00;;;9.90;99.90;;;9.39;78.95;100744.41;5104643;28;20032;-42
2021/04/25 03:54:34;;;;;;;9.70;5.93;;;9.90;99.90;;;9.39;78.99;100744.41;5099630;28;20460;-45
2021/04/25 03:57:00;;;;;;;10.45;6.72;;;9.90;99.90;;;9.41;78.40;100739.91;5088820;28;20060;-44
2021/04/25 03:59:27;;;;;;;11.43;7.03;;;9.90;99.90;;;9.39;78.57;100741.81;5093342;28;20062;-46
2021/04/25 04:01:54;;;;;;;9.27;6.30;;;9.90;99.90;;;9.40;78.71;100733.06;5099298;28;20179;-42
2021/04/25 04:04:20;;;;;;;9.52;6.43;;;9.90;99.90;;;9.38;78.41;100729.75;5102970;28;20039;-47
2021/04/25 04:06:46;;;;;;;7.05;5.32;;;9.90;99.90;;;9.43;78.05;100735.41;5088310;28;20036;-43
2021/04/25 04:09:13;;;;;;;10.43;6.55;;;9.90;99.90;;;9.44;77.88;100729.25;5095389;28;20152;-45
2021/04/25 04:11:39;;;;;;;11.55;6.43;;;9.90;99.90;;;9.48;77.54;100738.41;5101907;28;20156;-43
2021/04/25 04:14:06;;;;;;;8.60;6.10;;;10.00;99.90;;;9.53;77.10;100738.00;5096913;28;20558;-42
2021/04/25 04:16:31;;;;;;;10.75;6.68;;;10.00;99.90;;;9.57;76.83;100734.19;5094246;28;20057;-44
2021/04/25 04:18:57;;;;;;;12.45;6.95;;;10.10;99.90;;;9.61;76.27;100730.38;5098387;28;20031;-43
2021/04/25 04:21:23;;;;;;;7.72;6.43;;;10.10;99.90;;;9.57;76.65;100740.22;5083041;28;20038;-44
2021/04/25 04:23:49;;;;;;;7.03;6.22;;;10.10;99.90;;;9.47;76.83;100739.34;5092488;28;20078;-42
2021/04/25 04:26:15;;;;;;;11.25;7.13;;;10.00;99.90;;;9.35;77.15;100745.63;5095606;28;20517;-44
2021/04/25 04:28:41;;;;;;;10.95;5.88;;;10.00;99.90;;;9.16;78.18;100742.91;5077127;28;20078;-45
2021/04/25 04:31:07;;;;;;;12.48;6.25;;;9.90;99.90;;;9.25;77.93;100739.53;5094487;28;20031;-45
2021/04/25 04:33:35;;;;;;;8.43;5.40;;;9.80;99.90;;;9.37;77.48;100748.91;5095637;28;20564;-43
2021/04/25 04:36:03;;;;;;;12.93;6.57;;;9.90;99.90;;;9.65;76.51;100744.78;5095613;28;20111;-45
2021/04/25 04:38:29;;;;;;;10.48;5.78;;;10.10;99.90;;;10.09;75.20;100742.69;5087521;28;20043;-46
2021/04/25 04:40:56;;;;;;;12.95;6.78;;;10.60;99.90;;;10.36;74.29;100726.44;5092183;28;20338;-44
2021/04/25 04:43:23;;;;;;;8.73;5.53;;;10.90;99.90;;;10.34;74.12;100734.41;5089732;28;20400;-46
2021/04/25 04:45:50;;;;;;;10.32;5.65;;;11.00;99.90;;;10.37;74.20;100735.91;5096219;28;20024;-48
2021/04/25 04:48:16;;;;;;;7.55;5.22;;;11.00;99.90;;;10.51;73.45;100743.28;5101424;28;20047;-42
2021/04/25 04:50:42;;;;;;;11.63;6.05;;;11.20;99.90;;;10.70;72.74;100734.66;5088373;28;20231;-42
2021/04/25 04:53:08;;;;;;;6.90;4.95;;;11.30;99.90;;;11.17;71.24;100722.50;5092322;28;20147;-44
2021/04/25 04:55:34;;;;;;;9.68;5.05;;;11.80;99.90;;;12.35;67.49;100731.19;5105055;28;20032;-44
2021/04/25 04:57:59;;;;;;;8.43;4.95;;;13.60;99.90;;;12.70;65.04;100734.78;5095070;28;20035;-48
2021/04/25 05:00:25;;;;;;;6.05;4.68;;;14.40;99.80;;;12.54;66.06;100730.22;5100379;28;20034;-46
2021/04/25 05:02:51;;;;;;;6.32;4.38;;;14.20;99.90;;;12.13;67.15;100735.09;5096252;28;20399;-48
2021/04/25 05:05:17;;;;;;;8.77;5.07;;;13.60;99.90;;;11.93;67.77;100737.00;5095426;28;20035;-44
2021/04/25 05:07:43;;;;;;;7.03;5.00;;;13.10;99.90;;;12.13;67.41;100740.31;5087000;28;20044;-45
2021/04/25 05:10:10;;;;;;;6.10;4.43;;;13.30;99.90;;;12.45;66.45;100731.13;5084255;28;20114;-47
2021/04/25 05:12:36;;;;;;;6.13;4.93;;;13.60;99.90;;;13.00;64.72;100741.34;5094834;28;20066;-46
2021/04/25 05:15:03;;;;;;;8.15;4.60;;;14.40;99.90;;;13.90;61.29;100740.84;5096211;28;20040;-45
2021/04/25 05:17:29;;;;;;;5.95;4.32;;;15.60;96.50;;;14.15;61.51;100729.44;5079965;28;20040;-44
2021/04/25 05:19:55;;;;;;;6.90;4.38;;;16.30;92.60;;;14.54;60.48;100734.09;5097897;28;20555;-45
2021/04/25 05:22:22;;;;;;;7.25;4.35;;;16.90;90.30;;;14.46;58.89;100726.22;5089914;28;20036;-43
2021/04/25 05:24:48;;;;;;;5.70;4.20;;;17.10;84.70;;;15.01;58.91;100730.78;5099590;28;20407;-41
2021/04/25 05:27:14;;;;;;;8.20;4.70;;;17.60;83.70;;;15.50;57.36;100731.47;5096101;28;20400;-45
2021/04/25 05:29:40;;;;;;;7.20;3.60;;;18.00;79.70;;;15.22;57.65;100731.84;5097990;28;20167;-42
2021/04/25 05:32:06;;;;;;;4.97;3.67;;;17.90;77.40;;;14.95;57.46;100724.38;5105638;28;20075;-50
2021/04/25 05:34:33;;;;;;;7.88;3.65;;;17.70;77.80;;;14.46;59.34;100720.97;5103480;28;20039;-44
2021/04/25 05:36:59;;;;;;;5.72;4.00;;;17.20;79.70;;;15.52;56.03;100729.47;5098208;28;20110;-47
2021/04/25 05:39:25;;;;;;;6.57;3.33;;;18.10;76.50;;;15.57;54.17;100720.13;5096461;28;20040;-43
2021/04/25 05:41:51;;;;;;;5.50;3.92;;;18.40;72.40;;;15.63;54.65;100736.19;5091302;28;20039;-47
2021/04/25 05:44:17;;;;;;;5.03;3.92;;;18.50;72.10;;;16.18;54.37;100730.78;5090687;28;20031;-44
2021/04/25 05:46:43;;;;;;;8.52;4.10;;;18.80;71.30;;;16.59;52.84;100720.78;5097070;28;20494;-46
2021/04/25 05:49:09;;;;;;;7.75;3.92;;;19.30;68.80;;;16.43;53.27;100721.75;5105275;28;20048;-44
2021/04/25 05:51:35;;;;;;;8.40;3.97;;;19.40;67.30;;;17.01;51.66;100732.63;5104752;28;20035;-43
2021/04/25 05:54:01;;;;;;;5.53;3.53;;;19.90;65.40;;;17.22;50.39;100736.16;5105332;28;20059;-44
2021/04/25 05:56:28;;;;;;;5.32;3.50;;;20.10;63.30;;;17.46;50.25;100731.63;5105320;28;20039;-43
2021/04/25 05:58:54;;;;;;;6.50;3.67;;;20.60;62.70;;;17.54;50.45;100728.88;5087017;28;20090;-45
2021/04/25 06:01:20;;;;;;;6.05;3.67;;;21.00;62.20;;;17.08;51.32;100736.13;5098331;28;20036;-47
2021/04/25 06:03:46;;;;;;;5.57;3.42;;;20.40;61.80;;;17.01;51.52;100732.63;5098662;28;20035;-46
2021/04/25 06:06:12;;;;;;;5.82;3.50;;;20.30;62.30;;;17.17;51.28;100729.78;5090276;28;20028;-46
2021/04/25 06:08:38;;;;;;;5.05;3.08;;;20.20;63.60;;;16.73;51.90;100727.94;5105081;28;20540;-43
2021/04/25 06:11:04;;;;;;;4.25;2.85;;;20.20;61.80;;;17.45;50.29;100722.09;5100492;28;20039;-46
2021/04/25 06:13:30;;;;;;;7.20;3.45;;;20.60;61.10;;;17.51;49.96;100729.22;5095950;28;20080;-47
2021/04/25 06:15:56;;;;;;;5.18;3.13;;;20.80;60.20;;;17.49;49.57;100721.50;5098253;28;20534;-47
2021/04/25 06:18:22;;;;;;;4.65;2.83;;;20.90;58.90;;;18.16;47.85;100717.84;5100833;28;20106;-43
2021/04/25 06:20:48;;;;;;;7.18;3.08;;;21.60;58.20;;;18.47;47.64;100720.16;5095938;28;20081;-46
2021/04/25 06:23:14;;;;;;;5.97;2.88;;;22.00;57.50;;;18.45;47.53;100711.63;5091754;28;20094;-46
2021/04/25 06:25:41;;;;;;;5.50;3.00;;;22.20;56.20;;;17.89;48.82;100712.31;5092284;28;20036;-45
2021/04/25 06:28:07;;;;;;;6.22;3.20;;;21.20;58.30;;;18.26;47.97;100723.63;5085997;28;20044;-45
2021/04/25 06:30:33;;;;;;;5.55;2.70;;;21.60;57.30;;;18.79;47.06;100714.38;5095464;28;20035;-43
2021/04/25 06:32:59;;;;;;;2.92;2.40;;;22.30;56.20;;;19.27;46.25;100711.03;5089988;28;20505;-43
2021/04/25 06:35:26;;;;;;;5.18;2.80;;;22.90;55.30;;;19.40;45.70;100711.88;5105272;28;20042;-43
2021/04/25 06:37:52;;;;;;;6.78;3.20;;;23.30;54.10;;;19.49;45.09;100709.88;5102648;28;20096;-43
2021/04/25 06:40:19;;;;;;;4.72;2.97;;;23.50;52.20;;;19.30;45.34;100722.00;5108085;28;20131;-45
2021/04/25 06:42:45;;;;;;;4.57;2.10;;;23.40;52.30;;;19.68;44.71;100714.47;5096445;28;20089;-52
2021/04/25 06:45:16;;;;;;;3.85;3.17;;;23.50;53.00;;;19.99;43.23;100710.50;5090086;28;20090;-46
2021/04/25 06:47:42;;;;;;;5.80;2.60;;;24.10;50.60;;;19.88;44.02;100710.06;5107327;28;20583;-47
2021/04/25 06:50:12;;;;;;;6.20;3.20;;;24.00;51.10;;;20.51;42.32;100713.25;5095119;28;20478;-43
2021/04/25 06:52:44;;;;;;;8.80;3.13;;;24.50;50.30;;;20.21;43.08;100717.25;5104306;28;20110;-48
2021/04/25 06:55:16;;;;;;;4.78;2.90;;;24.40;50.00;;;20.31;42.93;100714.22;5102602;28;20157;-44
2021/04/25 06:57:48;;;;;;;3.65;2.28;;;24.50;50.20;;;20.20;42.90;100713.81;5100110;28;20063;-44
2021/04/25 07:00:15;;;;;;;5.53;2.90;;;24.30;49.80;;;20.27;42.22;100723.59;5101669;28;20096;-48
2021/04/25 07:02:41;;;;;;;4.80;2.85;;;24.00;50.00;;;20.08;43.12;100715.41;5095508;28;20028;-48
2021/04/25 07:05:08;;;;;;;8.60;3.45;;;23.30;51.50;;;19.26;44.62;100715.47;5105216;28;20388;-45
2021/04/25 07:07:35;;;;;;;5.70;3.30;;;22.00;54.10;;;19.22;44.77;100714.25;5097581;28;20074;-47
2021/04/25 07:10:03;;;;;;;5.57;3.15;;;20.90;57.20;;;18.68;46.12;100714.09;5099109;28;20386;-46
2021/04/25 07:12:30;;;;;;;4.07;3.00;;;20.10;59.50;;;18.18;47.03;100711.38;5099277;28;20421;-42
2021/04/25 07:14:57;;;;;;;6.88;2.63;;;19.40;61.20;;;17.99;47.50;100717.25;5105818;28;20164;-44
2021/04/25 07:17:24;;;;;;;7.30;3.20;;;18.80;62.90;;;17.76;48.13;100721.88;5081840;28;20357;-44
2021/04/25 07:19:50;;;;;;;7.93;3.38;;;18.50;64.30;;;17.55;48.39;100718.16;5099781;28;20040;-46
2021/04/25 07:22:17;;;;;;;6.95;3.30;;;18.30;64.40;;;17.07;49.82;100719.53;5100037;28;20046;-44
2021/04/25 07:24:43;;;;;;;9.07;3.92;;;18.00;66.60;;;17.27;49.03;100711.91;5107361;28;20055;-49
2021/04/25 07:27:09;;;;;;;5.22;3.30;;;18.00;66.10;;;17.58;48.51;100712.50;5091370;28;20130;-45
2021/04/25 07:29:35;;;;;;;6.82;3.67;;;18.00;66.80;;;17.49;49.06;100721.50;5107176;28;20494;-44
2021/04/25 07:32:01;;;;;;;10.75;3.78;;;18.10;66.90;;;17.77;48.36;100723.53;5098816;28;20047;-47
2021/04/25 07:34:27;;;;;;;5.82;2.92;;;18.20;66.40;;;18.15;47.70;100714.41;5086554;28;20062;-47
2021/04/25 07:36:54;;;;;;;5.53;3.00;;;18.50;66.70;;;18.55;47.04;100717.38;5088536;28;20040;-46
2021/04/25 07:39:20;;;;;;;8.00;4.28;;;18.90;66.00;;;18.89;46.22;100711.41;5104553;28;20090;-46
2021/04/25 07:41:47;;;;;;;3.13;2.80;;;19.30;65.00;;;19.04;46.18;100713.91;5076344;28;20039;-44
2021/04/25 07:44:13;;;;;;;6.10;3.50;;;19.50;64.60;;;18.70;47.52;100709.44;5096056;28;20039;-46
2021/04/25 07:46:39;;;;;;;5.53;2.80;;;19.40;65.20;;;18.95;46.87;100707.16;5056114;28;20044;-45
2021/04/25 07:49:05;;;;;;;6.25;3.28;;;19.40;65.70;;;19.10;46.66;100699.94;5101215;28;20055;-45
2021/04/25 07:51:31;;;;;;;4.90;3.35;;;19.60;65.40;;;18.75;47.21;100697.28;5089674;28;20066;-48
2021/04/25 07:53:59;;;;;;;7.88;3.63;;;19.50;65.30;;;19.12;46.59;100697.94;5078068;28;20039;-49
2021/04/25 07:56:26;;;;;;;6.53;3.35;;;19.70;65.40;;;19.51;45.84;100698.16;5088511;28;20486;-46
2021/04/25 07:58:53;;;;;;;3.92;2.97;;;20.00;65.10;;;19.20;46.08;100695.13;5086629;28;20163;-48
2021/04/25 08:01:19;;;;;;;6.68;2.72;;;20.00;64.00;;;19.61;45.35;100689.03;5086522;28;20035;-45
2021/04/25 08:03:45;;;;;;;8.18;3.08;;;20.10;64.30;;;19.84;44.91;100693.00;5068612;28;20159;-49
2021/04/25 08:06:11;;;;;;;3.90;3.17;;;20.30;64.00;;;19.85;44.81;100696.41;5076298;28;20150;-47
2021/04/25 08:08:37;;;;;;;5.13;3.13;;;20.50;63.10;;;19.76;45.34;100689.72;5096664;28;20036;-46
2021/04/25 08:11:03;;;;;;;5.20;3.10;;;20.40;63.60;;;19.91;45.12;100697.44;5089446;28;20118;-46
2021/04/25 08:13:29;;;;;;;6.10;3.28;;;20.40;63.80;;;20.09;44.94;100701.16;5095972;28;20144;-48
2021/04/25 08:15:55;;;;;;;4.88;3.40;;;20.60;63.60;;;20.14;44.65;100703.22;5091436;28;20040;-49
2021/04/25 08:18:21;;;;;;;6.57;3.70;;;20.70;63.20;;;19.79;45.37;100698.06;5094920;28;20416;-48
2021/04/25 08:20:47;;;;;;;5.93;3.83;;;20.60;63.20;;;19.68;45.43;100693.34;5101995;28;20024;-44
2021/04/25 08:23:12;;;;;;;7.47;4.00;;;20.30;63.60;;;19.75;45.61;100693.38;5095886;28;20123;-51
2021/04/25 08:25:39;;;;;;;4.95;3.55;;;20.40;64.40;;;20.00;45.31;100694.44;5088369;28;20071;-47
2021/04/25 08:28:05;;;;;;;6.90;3.60;;;20.50;64.30;;;20.27;44.64;100689.19;5081932;28;20507;-46
2021/04/25 08:30:31;;;;;;;4.43;3.38;;;20.70;63.60;;;20.66;43.69;100683.91;5082126;28;20040;-46
2021/04/25 08:32:57;;;;;;;5.88;3.25;;;20.90;63.10;;;21.17;42.89;100685.88;5086512;28;20032;-44
2021/04/25 08:35:23;;;;;;;5.53;3.60;;;21.40;62.50;;;21.52;42.65;100684.53;5074472;28;20151;-45
2021/04/25 08:37:50;;;;;;;4.80;3.53;;;21.90;61.90;;;21.86;41.87;100679.84;5079363;28;20063;-48
2021/04/25 08:40:16;;;;;;;7.88;3.50;;;22.20;61.10;;;22.16;41.55;100672.16;5082657;28;20034;-46
2021/04/25 08:42:43;;;;;;;6.32;3.70;;;22.50;60.60;;;22.10;41.63;100668.53;5056564;28;20609;-49
2021/04/25 08:45:14;;;;;;;13.18;3.97;;;22.60;60.00;;;22.31;41.00;100675.28;5087532;28;20029;-49
2021/04/25 08:47:55;;;;;;;8.70;3.60;;;22.80;60.20;;;22.31;40.27;100674.47;5066828;28;20032;-49
2021/04/25 08:50:24;;;;;;;7.55;3.78;;;22.80;59.30;;;22.02;41.44;100670.63;5083244;28;20047;-47
2021/04/25 08:52:50;;;;;;;7.75;2.78;;;22.50;59.70;;;22.59;40.56;100672.19;5076035;28;20101;-48
2021/04/25 08:55:16;;;;;;;5.38;3.22;;;22.80;59.90;;;22.61;40.23;100669.34;5099882;28;20035;-52
2021/04/25 08:57:43;;;;;;;7.07;3.65;;;23.00;58.80;;;22.27;40.91;100662.66;5083049;28;20039;-49
2021/04/25 09:00:11;;;;;;;7.30;3.60;;;22.70;59.10;;;22.54;40.47;100660.59;5087597;28;20031;-48
2021/04/25 09:02:37;;;;;;;6.80;3.20;;;22.80;59.40;;;22.98;39.88;100671.03;5068727;28;20036;-51
2021/04/25 09:05:04;;;;;;;8.25;3.67;;;23.10;59.30;;;23.00;39.08;100663.66;5087554;28;20031;-50
2021/04/25 09:07:30;;;;;;;5.88;3.22;;;23.30;58.00;;;22.57;39.89;100658.34;5087128;28;20124;-48
2021/04/25 09:10:03;;;;;;;10.10;3.88;;;23.00;58.00;;;22.33;40.43;100659.16;5087145;28;20135;-50
2021/04/25 09:12:44;;;;;;;9.35;3.58;;;22.80;58.70;;;22.66;39.10;100659.69;5087342;28;20091;-46
2021/04/25 09:15:10;;;;;;;6.82;3.28;;;23.00;58.60;;;23.00;39.55;100649.53;5086387;28;20032;-51
2021/04/25 09:18:04;;;;;;;5.68;3.25;;;23.30;58.30;;;23.24;38.06;100640.66;5100497;28;20044;-49
2021/04/25 09:20:50;;;;;;;7.55;3.60;;;23.50;57.10;;;23.00;38.04;100650.34;5090648;28;20083;-50
2021/04/25 09:23:22;;;;;;;6.13;3.97;;;23.50;56.80;;;22.81;38.41;100644.22;5079002;28;20035;-48
2021/04/25 09:26:06;;;;;;;17.33;10.38;;;23.30;56.70;;;23.17;37.95;100642.56;5099443;28;20419;-48
2021/04/25 09:28:37;;;;;;;8.20;4.97;;;23.40;56.10;;;23.42;38.18;100635.31;5101828;28;20051;-50
2021/04/25 09:31:05;;;;;;;5.80;3.92;;;23.60;56.30;;;23.42;38.09;100629.19;5069032;28;20119;-51
2021/04/25 09:33:57;;;;;;;9.60;3.30;;;23.70;56.30;;;23.63;36.44;100625.28;5094644;28;20032;-50
2021/04/25 09:36:30;;;;;;;4.95;3.30;;;23.90;54.60;;;23.36;37.19;100632.75;5106251;28;20067;-48
2021/04/25 09:39:15;;;;;;;4.95;3.50;;;23.80;54.80;;;22.92;36.89;100618.78;5105552;28;20135;-51
2021/04/25 09:41:42;;;;;;;7.18;3.50;;;23.50;53.70;;;23.02;37.81;100612.94;5092494;28;20028;-50
2021/04/25 09:44:27;;;;;;;14.82;3.80;;;23.30;55.20;;;23.23;37.11;100599.16;5091098;28;20028;-54
2021/04/25 09:46:59;;;;;;;6.82;3.50;;;23.50;55.10;;;23.28;37.66;100609.94;5093482;28;20058;-49
2021/04/25 09:49:49;;;;;;;6.68;3.53;;;23.60;55.00;;;23.48;36.74;100604.38;5082355;28;20843;-51
2021/04/25 09:52:27;;;;;;;8.23;3.97;;;23.70;55.10;;;23.24;37.00;100600.78;5082667;28;20056;-46
2021/04/25 09:55:31;;;;;;;8.25;3.97;;;23.70;54.30;;;23.41;36.28;100593.00;5096366;28;20047;-50
2021/04/25 09:58:05;;;;;;;6.80;3.63;;;23.70;54.40;;;23.26;36.37;100590.75;5077435;28;20038;-47
2021/04/25 10:00:49;;;;;;;7.32;3.80;;;23.60;54.60;;;23.26;36.93;100597.91;5108264;28;20074;-50
2021/04/25 10:03:20;;;;;;;8.05;3.75;;;23.60;54.70;;;23.25;37.16;100591.78;5101276;28;20036;-48
2021/04/25 10:06:04;;;;;;;3.63;2.83;;;23.60;54.60;;;23.55;36.53;100588.34;5091787;28;20045;-52
2021/04/25 10:08:35;;;;;;;6.28;3.85;;;23.80;54.40;;;23.88;35.86;100588.66;5079889;28;20105;-51
2021/04/25 10:11:04;;;;;;;6.75;3.17;;;24.00;54.10;;;23.59;36.08;100592.19;5098205;28;20035;-46
2021/04/25 10:13:31;;;;;;;6.05;3.85;;;24.00;53.80;;;23.12;35.86;100581.34;5106517;28;20027;-47
2021/04/25 10:15:58;;;;;;;4.88;2.88;;;23.70;52.10;;;22.63;36.89;100577.78;5101583;28;20051;-49